sensor_id;sensor_type;location;lat;lon;timestamp;P1;durP1;ratioP1;P2;durP2;ratioP2
6791;SDS011;3433;48.730;9.108;2022-08-30T00:02:46;9.43;;;6.20;;
6791;SDS011;3433;48.730;9.108;2022-08-30T00:05:35;7.23;;;6.20;;
6791;SDS011;3433;48.730;9.108;2022-08-30T00:12:06;6.43;;;5.77;;
6791;SDS011;3433;48.730;9.108;2022-08-30T00:14:54;6.50;;;5.67;;
6791;SDS011;3433;48.730;9.108;2022-08-30T00:17:41;7.13;;;6.17;;
6791;SDS011;3433;48.730;9.108;2022-08-30T00:20:30;9.17;;;6.40;;
6791;SDS011;3433;48.730;9.108;2022-08-30T00:23:18;34.97;;;7.23;;
6791;SDS011;3433;48.730;9.108;2022-08-30T00:26:06;7.30;;;5.80;;
6791;SDS011;3433;48.730;9.108;2022-08-30T00:28:55;7.30;;;6.23;;
6791;SDS011;3433;48.730;9.108;2022-08-30T00:31:43;6.53;;;5.93;;
6791;SDS011;3433;48.730;9.108;2022-08-30T00:34:30;7.10;;;6.40;;
6791;SDS011;3433;48.730;9.108;2022-08-30T00:37:18;6.97;;;6.23;;
6791;SDS011;3433;48.730;9.108;2022-08-30T00:40:05;7.07;;;5.97;;
6791;SDS011;3433;48.730;9.108;2022-08-30T00:42:55;7.40;;;6.27;;
6791;SDS011;3433;48.730;9.108;2022-08-30T00:45:45;7.20;;;6.00;;
6791;SDS011;3433;48.730;9.108;2022-08-30T00:48:33;8.17;;;6.30;;
6791;SDS011;3433;48.730;9.108;2022-08-30T00:51:22;7.97;;;6.57;;
6791;SDS011;3433;48.730;9.108;2022-08-30T00:54:10;8.13;;;6.80;;
6791;SDS011;3433;48.730;9.108;2022-08-30T00:56:58;7.43;;;6.37;;
6791;SDS011;3433;48.730;9.108;2022-08-30T00:59:46;6.90;;;6.20;;
6791;SDS011;3433;48.730;9.108;2022-08-30T01:02:36;12.20;;;6.97;;
6791;SDS011;3433;48.730;9.108;2022-08-30T01:05:24;8.50;;;7.00;;
6791;SDS011;3433;48.730;9.108;2022-08-30T01:08:11;7.13;;;6.30;;
6791;SDS011;3433;48.730;9.108;2022-08-30T01:10:59;8.93;;;6.90;;
6791;SDS011;3433;48.730;9.108;2022-08-30T01:13:48;9.50;;;6.33;;
6791;SDS011;3433;48.730;9.108;2022-08-30T01:16:39;6.40;;;5.80;;
6791;SDS011;3433;48.730;9.108;2022-08-30T01:19:32;8.97;;;6.60;;
6791;SDS011;3433;48.730;9.108;2022-08-30T01:22:25;6.90;;;5.83;;
6791;SDS011;3433;48.730;9.108;2022-08-30T01:25:21;10.47;;;7.10;;
6791;SDS011;3433;48.730;9.108;2022-08-30T01:28:12;7.67;;;6.20;;
6791;SDS011;3433;48.730;9.108;2022-08-30T01:31:03;8.80;;;6.07;;
6791;SDS011;3433;48.730;9.108;2022-08-30T01:33:50;7.57;;;6.57;;
6791;SDS011;3433;48.730;9.108;2022-08-30T01:36:38;8.43;;;6.63;;
6791;SDS011;3433;48.730;9.108;2022-08-30T01:39:28;6.93;;;6.23;;
6791;SDS011;3433;48.730;9.108;2022-08-30T01:42:17;9.10;;;6.80;;
6791;SDS011;3433;48.730;9.108;2022-08-30T01:45:04;8.23;;;5.90;;
6791;SDS011;3433;48.730;9.108;2022-08-30T01:47:53;8.30;;;6.77;;
6791;SDS011;3433;48.730;9.108;2022-08-30T01:53:08;7.47;;;6.33;;
6791;SDS011;3433;48.730;9.108;2022-08-30T01:55:56;9.57;;;7.10;;
6791;SDS011;3433;48.730;9.108;2022-08-30T01:58:45;8.27;;;6.50;;
6791;SDS011;3433;48.730;9.108;2022-08-30T02:01:33;7.13;;;6.17;;
6791;SDS011;3433;48.730;9.108;2022-08-30T02:04:23;9.63;;;7.10;;
6791;SDS011;3433;48.730;9.108;2022-08-30T02:07:11;9.27;;;6.73;;
6791;SDS011;3433;48.730;9.108;2022-08-30T02:09:58;10.00;;;6.50;;
6791;SDS011;3433;48.730;9.108;2022-08-30T02:12:46;10.97;;;7.00;;
6791;SDS011;3433;48.730;9.108;2022-08-30T02:15:34;9.93;;;6.90;;
6791;SDS011;3433;48.730;9.108;2022-08-30T02:18:22;9.57;;;6.50;;
6791;SDS011;3433;48.730;9.108;2022-08-30T02:21:10;7.03;;;6.33;;
6791;SDS011;3433;48.730;9.108;2022-08-30T02:23:58;11.83;;;7.47;;
6791;SDS011;3433;48.730;9.108;2022-08-30T02:26:45;7.13;;;6.17;;
6791;SDS011;3433;48.730;9.108;2022-08-30T02:29:33;7.53;;;6.73;;
6791;SDS011;3433;48.730;9.108;2022-08-30T02:32:22;12.00;;;7.10;;
6791;SDS011;3433;48.730;9.108;2022-08-30T02:35:09;8.70;;;6.30;;
6791;SDS011;3433;48.730;9.108;2022-08-30T02:37:56;8.13;;;6.43;;
6791;SDS011;3433;48.730;9.108;2022-08-30T02:40:43;8.97;;;6.70;;
6791;SDS011;3433;48.730;9.108;2022-08-30T02:43:31;12.33;;;7.17;;
6791;SDS011;3433;48.730;9.108;2022-08-30T02:46:18;11.50;;;6.63;;
6791;SDS011;3433;48.730;9.108;2022-08-30T02:49:06;10.03;;;7.30;;
6791;SDS011;3433;48.730;9.108;2022-08-30T02:51:54;7.90;;;7.10;;
6791;SDS011;3433;48.730;9.108;2022-08-30T02:54:41;7.70;;;6.57;;
6791;SDS011;3433;48.730;9.108;2022-08-30T02:57:28;9.03;;;7.53;;
6791;SDS011;3433;48.730;9.108;2022-08-30T03:00:17;8.57;;;6.90;;
6791;SDS011;3433;48.730;9.108;2022-08-30T03:03:05;9.40;;;7.40;;
6791;SDS011;3433;48.730;9.108;2022-08-30T03:05:54;7.67;;;6.20;;
6791;SDS011;3433;48.730;9.108;2022-08-30T03:08:42;8.70;;;6.93;;
6791;SDS011;3433;48.730;9.108;2022-08-30T03:11:29;8.00;;;6.63;;
6791;SDS011;3433;48.730;9.108;2022-08-30T03:14:17;7.47;;;6.67;;
6791;SDS011;3433;48.730;9.108;2022-08-30T03:17:05;9.10;;;7.20;;
6791;SDS011;3433;48.730;9.108;2022-08-30T03:19:54;8.60;;;7.50;;
6791;SDS011;3433;48.730;9.108;2022-08-30T03:22:42;7.43;;;6.63;;
6791;SDS011;3433;48.730;9.108;2022-08-30T03:25:29;8.00;;;7.10;;
6791;SDS011;3433;48.730;9.108;2022-08-30T03:28:18;12.00;;;7.37;;
6791;SDS011;3433;48.730;9.108;2022-08-30T03:31:05;9.37;;;7.30;;
6791;SDS011;3433;48.730;9.108;2022-08-30T03:33:53;8.10;;;7.23;;
6791;SDS011;3433;48.730;9.108;2022-08-30T03:36:40;9.10;;;7.53;;
6791;SDS011;3433;48.730;9.108;2022-08-30T03:39:30;8.27;;;7.00;;
6791;SDS011;3433;48.730;9.108;2022-08-30T03:42:17;9.33;;;7.47;;
6791;SDS011;3433;48.730;9.108;2022-08-30T03:45:05;9.50;;;8.50;;
6791;SDS011;3433;48.730;9.108;2022-08-30T03:47:53;14.57;;;7.80;;
6791;SDS011;3433;48.730;9.108;2022-08-30T03:50:41;8.27;;;7.47;;
6791;SDS011;3433;48.730;9.108;2022-08-30T03:53:28;8.23;;;7.10;;
6791;SDS011;3433;48.730;9.108;2022-08-30T03:56:16;8.50;;;7.13;;
6791;SDS011;3433;48.730;9.108;2022-08-30T03:59:05;11.10;;;7.60;;
6791;SDS011;3433;48.730;9.108;2022-08-30T04:01:52;7.83;;;6.37;;
6791;SDS011;3433;48.730;9.108;2022-08-30T04:04:40;10.30;;;7.40;;
6791;SDS011;3433;48.730;9.108;2022-08-30T04:07:28;14.23;;;7.20;;
6791;SDS011;3433;48.730;9.108;2022-08-30T04:10:15;9.50;;;7.13;;
6791;SDS011;3433;48.730;9.108;2022-08-30T04:13:06;10.50;;;7.57;;
6791;SDS011;3433;48.730;9.108;2022-08-30T04:15:54;9.57;;;7.17;;
6791;SDS011;3433;48.730;9.108;2022-08-30T04:18:41;12.13;;;8.97;;
6791;SDS011;3433;48.730;9.108;2022-08-30T04:21:28;8.10;;;6.70;;
6791;SDS011;3433;48.730;9.108;2022-08-30T04:24:16;10.07;;;8.77;;
6791;SDS011;3433;48.730;9.108;2022-08-30T04:27:03;15.50;;;10.30;;
6791;SDS011;3433;48.730;9.108;2022-08-30T04:29:52;20.57;;;12.80;;
6791;SDS011;3433;48.730;9.108;2022-08-30T04:32:41;22.53;;;14.33;;
6791;SDS011;3433;48.730;9.108;2022-08-30T04:35:28;22.93;;;13.97;;
6791;SDS011;3433;48.730;9.108;2022-08-30T04:38:16;16.40;;;11.60;;
6791;SDS011;3433;48.730;9.108;2022-08-30T04:41:07;18.50;;;12.70;;
6791;SDS011;3433;48.730;9.108;2022-08-30T04:43:56;17.87;;;11.73;;
6791;SDS011;3433;48.730;9.108;2022-08-30T04:46:48;15.97;;;10.60;;
6791;SDS011;3433;48.730;9.108;2022-08-30T04:49:36;12.17;;;10.13;;
6791;SDS011;3433;48.730;9.108;2022-08-30T04:52:23;13.43;;;10.70;;
6791;SDS011;3433;48.730;9.108;2022-08-30T04:55:11;12.20;;;8.23;;
6791;SDS011;3433;48.730;9.108;2022-08-30T04:57:59;8.80;;;7.57;;
6791;SDS011;3433;48.730;9.108;2022-08-30T05:00:46;9.20;;;8.00;;
6791;SDS011;3433;48.730;9.108;2022-08-30T05:03:35;9.80;;;7.50;;
6791;SDS011;3433;48.730;9.108;2022-08-30T05:06:22;10.17;;;8.43;;
6791;SDS011;3433;48.730;9.108;2022-08-30T05:09:11;8.93;;;7.60;;
6791;SDS011;3433;48.730;9.108;2022-08-30T05:11:59;11.93;;;7.40;;
6791;SDS011;3433;48.730;9.108;2022-08-30T05:14:47;9.10;;;7.80;;
6791;SDS011;3433;48.730;9.108;2022-08-30T05:17:35;12.97;;;9.60;;
6791;SDS011;3433;48.730;9.108;2022-08-30T05:20:24;9.70;;;7.20;;
6791;SDS011;3433;48.730;9.108;2022-08-30T05:23:11;12.90;;;8.80;;
6791;SDS011;3433;48.730;9.108;2022-08-30T05:26:02;12.47;;;9.47;;
6791;SDS011;3433;48.730;9.108;2022-08-30T05:28:51;10.97;;;8.53;;
6791;SDS011;3433;48.730;9.108;2022-08-30T05:31:39;10.50;;;8.23;;
6791;SDS011;3433;48.730;9.108;2022-08-30T05:34:29;9.17;;;8.27;;
6791;SDS011;3433;48.730;9.108;2022-08-30T05:37:17;10.37;;;9.33;;
6791;SDS011;3433;48.730;9.108;2022-08-30T05:40:05;11.60;;;8.27;;
6791;SDS011;3433;48.730;9.108;2022-08-30T05:42:53;11.60;;;8.17;;
6791;SDS011;3433;48.730;9.108;2022-08-30T05:45:41;12.30;;;9.37;;
6791;SDS011;3433;48.730;9.108;2022-08-30T05:48:28;10.57;;;8.57;;
6791;SDS011;3433;48.730;9.108;2022-08-30T05:51:16;10.73;;;8.50;;
6791;SDS011;3433;48.730;9.108;2022-08-30T05:54:06;12.73;;;8.97;;
6791;SDS011;3433;48.730;9.108;2022-08-30T05:56:54;12.97;;;9.47;;
6791;SDS011;3433;48.730;9.108;2022-08-30T05:59:41;15.30;;;10.40;;
6791;SDS011;3433;48.730;9.108;2022-08-30T06:02:28;15.00;;;9.93;;
6791;SDS011;3433;48.730;9.108;2022-08-30T06:05:15;12.70;;;10.37;;
6791;SDS011;3433;48.730;9.108;2022-08-30T06:08:03;17.40;;;10.23;;
6791;SDS011;3433;48.730;9.108;2022-08-30T06:10:52;13.43;;;9.60;;
6791;SDS011;3433;48.730;9.108;2022-08-30T06:13:41;17.07;;;10.87;;
6791;SDS011;3433;48.730;9.108;2022-08-30T06:16:28;13.70;;;10.47;;
6791;SDS011;3433;48.730;9.108;2022-08-30T06:19:16;13.90;;;11.33;;
6791;SDS011;3433;48.730;9.108;2022-08-30T06:22:04;12.90;;;11.43;;
6791;SDS011;3433;48.730;9.108;2022-08-30T06:24:51;14.97;;;10.73;;
6791;SDS011;3433;48.730;9.108;2022-08-30T06:27:40;14.70;;;11.20;;
6791;SDS011;3433;48.730;9.108;2022-08-30T06:30:27;15.87;;;11.50;;
6791;SDS011;3433;48.730;9.108;2022-08-30T06:33:14;12.70;;;10.27;;
6791;SDS011;3433;48.730;9.108;2022-08-30T06:36:02;11.73;;;9.90;;
6791;SDS011;3433;48.730;9.108;2022-08-30T06:38:51;14.97;;;10.57;;
6791;SDS011;3433;48.730;9.108;2022-08-30T06:41:39;13.03;;;9.90;;
6791;SDS011;3433;48.730;9.108;2022-08-30T06:44:29;13.80;;;10.47;;
6791;SDS011;3433;48.730;9.108;2022-08-30T06:47:17;12.23;;;10.10;;
6791;SDS011;3433;48.730;9.108;2022-08-30T06:50:04;14.40;;;10.90;;
6791;SDS011;3433;48.730;9.108;2022-08-30T06:52:52;18.70;;;10.50;;
6791;SDS011;3433;48.730;9.108;2022-08-30T06:55:40;13.50;;;10.27;;
6791;SDS011;3433;48.730;9.108;2022-08-30T06:58:27;11.53;;;10.07;;
6791;SDS011;3433;48.730;9.108;2022-08-30T07:01:17;12.80;;;10.17;;
6791;SDS011;3433;48.730;9.108;2022-08-30T07:04:06;14.20;;;10.20;;
6791;SDS011;3433;48.730;9.108;2022-08-30T07:06:53;14.27;;;10.40;;
6791;SDS011;3433;48.730;9.108;2022-08-30T07:09:41;13.43;;;9.90;;
6791;SDS011;3433;48.730;9.108;2022-08-30T07:12:29;16.87;;;10.40;;
6791;SDS011;3433;48.730;9.108;2022-08-30T07:15:16;12.43;;;9.70;;
6791;SDS011;3433;48.730;9.108;2022-08-30T07:18:08;12.63;;;9.27;;
6791;SDS011;3433;48.730;9.108;2022-08-30T07:21:14;15.20;;;9.17;;
6791;SDS011;3433;48.730;9.108;2022-08-30T07:24:04;9.20;;;8.20;;
6791;SDS011;3433;48.730;9.108;2022-08-30T07:26:54;10.90;;;9.53;;
6791;SDS011;3433;48.730;9.108;2022-08-30T07:29:41;13.20;;;9.90;;
6791;SDS011;3433;48.730;9.108;2022-08-30T07:32:29;10.57;;;9.10;;
6791;SDS011;3433;48.730;9.108;2022-08-30T07:35:18;10.43;;;8.73;;
6791;SDS011;3433;48.730;9.108;2022-08-30T07:38:05;11.40;;;8.70;;
6791;SDS011;3433;48.730;9.108;2022-08-30T07:40:53;8.90;;;8.00;;
6791;SDS011;3433;48.730;9.108;2022-08-30T07:43:43;11.73;;;8.57;;
6791;SDS011;3433;48.730;9.108;2022-08-30T07:46:31;10.00;;;9.00;;
6791;SDS011;3433;48.730;9.108;2022-08-30T07:49:18;12.40;;;9.03;;
6791;SDS011;3433;48.730;9.108;2022-08-30T07:52:07;13.83;;;9.80;;
6791;SDS011;3433;48.730;9.108;2022-08-30T07:54:54;12.50;;;9.20;;
6791;SDS011;3433;48.730;9.108;2022-08-30T07:57:42;13.13;;;10.20;;
6791;SDS011;3433;48.730;9.108;2022-08-30T08:00:29;10.77;;;9.00;;
6791;SDS011;3433;48.730;9.108;2022-08-30T08:03:16;10.30;;;9.20;;
6791;SDS011;3433;48.730;9.108;2022-08-30T08:06:04;11.57;;;10.37;;
6791;SDS011;3433;48.730;9.108;2022-08-30T08:08:54;10.50;;;8.57;;
6791;SDS011;3433;48.730;9.108;2022-08-30T08:11:46;11.20;;;8.37;;
6791;SDS011;3433;48.730;9.108;2022-08-30T08:14:33;12.60;;;8.40;;
6791;SDS011;3433;48.730;9.108;2022-08-30T08:17:21;10.60;;;9.00;;
6791;SDS011;3433;48.730;9.108;2022-08-30T08:20:08;9.50;;;8.50;;
6791;SDS011;3433;48.730;9.108;2022-08-30T08:22:56;9.37;;;8.47;;
6791;SDS011;3433;48.730;9.108;2022-08-30T08:25:44;9.53;;;8.33;;
6791;SDS011;3433;48.730;9.108;2022-08-30T08:28:32;12.50;;;8.83;;
6791;SDS011;3433;48.730;9.108;2022-08-30T08:31:20;10.43;;;8.93;;
6791;SDS011;3433;48.730;9.108;2022-08-30T08:34:08;11.73;;;9.20;;
6791;SDS011;3433;48.730;9.108;2022-08-30T08:36:56;10.97;;;8.10;;
6791;SDS011;3433;48.730;9.108;2022-08-30T08:39:43;10.27;;;8.10;;
6791;SDS011;3433;48.730;9.108;2022-08-30T08:42:35;9.10;;;7.63;;
6791;SDS011;3433;48.730;9.108;2022-08-30T08:45:39;9.90;;;8.90;;
6791;SDS011;3433;48.730;9.108;2022-08-30T08:48:33;10.90;;;8.10;;
6791;SDS011;3433;48.730;9.108;2022-08-30T08:51:27;7.77;;;7.07;;
6791;SDS011;3433;48.730;9.108;2022-08-30T08:54:35;8.30;;;7.50;;
6791;SDS011;3433;48.730;9.108;2022-08-30T08:57:29;8.20;;;7.40;;
6791;SDS011;3433;48.730;9.108;2022-08-30T09:00:21;9.70;;;8.43;;
6791;SDS011;3433;48.730;9.108;2022-08-30T09:03:09;8.70;;;7.90;;
6791;SDS011;3433;48.730;9.108;2022-08-30T09:06:01;8.90;;;7.50;;
6791;SDS011;3433;48.730;9.108;2022-08-30T09:08:52;7.00;;;6.40;;
6791;SDS011;3433;48.730;9.108;2022-08-30T09:11:40;11.40;;;7.40;;
6791;SDS011;3433;48.730;9.108;2022-08-30T09:14:33;10.87;;;7.07;;
6791;SDS011;3433;48.730;9.108;2022-08-30T09:17:22;7.33;;;6.07;;
6791;SDS011;3433;48.730;9.108;2022-08-30T09:20:09;13.23;;;7.80;;
6791;SDS011;3433;48.730;9.108;2022-08-30T09:22:56;8.33;;;7.40;;
6791;SDS011;3433;48.730;9.108;2022-08-30T09:25:48;7.80;;;7.00;;
6791;SDS011;3433;48.730;9.108;2022-08-30T09:28:42;6.93;;;6.33;;
6791;SDS011;3433;48.730;9.108;2022-08-30T09:31:44;7.90;;;6.83;;
6791;SDS011;3433;48.730;9.108;2022-08-30T09:34:35;8.83;;;7.30;;
6791;SDS011;3433;48.730;9.108;2022-08-30T09:37:33;7.60;;;6.80;;
6791;SDS011;3433;48.730;9.108;2022-08-30T09:40:24;7.80;;;6.57;;
6791;SDS011;3433;48.730;9.108;2022-08-30T09:43:19;7.23;;;6.53;;
6791;SDS011;3433;48.730;9.108;2022-08-30T09:46:09;7.60;;;6.80;;
6791;SDS011;3433;48.730;9.108;2022-08-30T09:48:59;8.23;;;7.40;;
6791;SDS011;3433;48.730;9.108;2022-08-30T09:51:47;11.07;;;7.23;;
6791;SDS011;3433;48.730;9.108;2022-08-30T09:54:42;7.77;;;6.77;;
6791;SDS011;3433;48.730;9.108;2022-08-30T09:57:47;8.40;;;6.63;;
6791;SDS011;3433;48.730;9.108;2022-08-30T10:00:44;6.80;;;5.83;;
6791;SDS011;3433;48.730;9.108;2022-08-30T10:03:38;6.10;;;5.60;;
6791;SDS011;3433;48.730;9.108;2022-08-30T10:06:33;9.97;;;6.70;;
6791;SDS011;3433;48.730;9.108;2022-08-30T10:09:28;7.37;;;6.60;;
6791;SDS011;3433;48.730;9.108;2022-08-30T10:12:23;7.20;;;5.80;;
6791;SDS011;3433;48.730;9.108;2022-08-30T10:15:16;7.77;;;6.97;;
6791;SDS011;3433;48.730;9.108;2022-08-30T10:18:10;7.47;;;6.73;;
6791;SDS011;3433;48.730;9.108;2022-08-30T10:21:04;7.67;;;6.97;;
6791;SDS011;3433;48.730;9.108;2022-08-30T10:24:00;6.63;;;5.93;;
6791;SDS011;3433;48.730;9.108;2022-08-30T10:26:50;6.37;;;5.60;;
6791;SDS011;3433;48.730;9.108;2022-08-30T10:29:41;6.50;;;5.70;;
6791;SDS011;3433;48.730;9.108;2022-08-30T10:32:34;7.93;;;5.90;;
6791;SDS011;3433;48.730;9.108;2022-08-30T10:35:25;6.17;;;5.67;;
6791;SDS011;3433;48.730;9.108;2022-08-30T10:38:17;5.77;;;5.27;;
6791;SDS011;3433;48.730;9.108;2022-08-30T10:41:19;5.93;;;5.33;;
6791;SDS011;3433;48.730;9.108;2022-08-30T10:44:10;6.57;;;5.97;;
6791;SDS011;3433;48.730;9.108;2022-08-30T10:47:09;5.57;;;5.07;;
6791;SDS011;3433;48.730;9.108;2022-08-30T10:50:05;5.97;;;5.40;;
6791;SDS011;3433;48.730;9.108;2022-08-30T10:52:58;6.63;;;5.90;;
6791;SDS011;3433;48.730;9.108;2022-08-30T10:55:55;19.73;;;5.73;;
6791;SDS011;3433;48.730;9.108;2022-08-30T10:58:49;6.20;;;5.60;;
6791;SDS011;3433;48.730;9.108;2022-08-30T11:01:45;5.97;;;5.37;;
6791;SDS011;3433;48.730;9.108;2022-08-30T11:15:52;6.17;;;5.67;;
6791;SDS011;3433;48.730;9.108;2022-08-30T11:18:44;6.13;;;5.57;;
6791;SDS011;3433;48.730;9.108;2022-08-30T11:21:34;5.63;;;5.13;;
6791;SDS011;3433;48.730;9.108;2022-08-30T11:24:23;5.57;;;5.17;;
6791;SDS011;3433;48.730;9.108;2022-08-30T11:27:20;6.63;;;5.57;;
6791;SDS011;3433;48.730;9.108;2022-08-30T11:30:45;11.00;;;6.13;;
6791;SDS011;3433;48.730;9.108;2022-08-30T11:33:45;6.60;;;6.00;;
6791;SDS011;3433;48.730;9.108;2022-08-30T11:39:55;6.80;;;6.13;;
6791;SDS011;3433;48.730;9.108;2022-08-30T11:42:46;5.60;;;5.10;;
6791;SDS011;3433;48.730;9.108;2022-08-30T11:45:41;6.33;;;5.60;;
6791;SDS011;3433;48.730;9.108;2022-08-30T11:48:38;6.13;;;5.63;;
6791;SDS011;3433;48.730;9.108;2022-08-30T11:51:43;6.03;;;5.53;;
6791;SDS011;3433;48.730;9.108;2022-08-30T11:54:52;7.00;;;6.30;;
6791;SDS011;3433;48.730;9.108;2022-08-30T11:57:49;6.13;;;5.60;;
6791;SDS011;3433;48.730;9.108;2022-08-30T12:00:43;5.80;;;5.30;;
6791;SDS011;3433;48.730;9.108;2022-08-30T12:03:32;6.20;;;5.40;;
6791;SDS011;3433;48.730;9.108;2022-08-30T12:13:06;8.27;;;6.23;;
6791;SDS011;3433;48.730;9.108;2022-08-30T12:15:55;6.87;;;6.20;;
6791;SDS011;3433;48.730;9.108;2022-08-30T12:18:44;6.90;;;6.20;;
6791;SDS011;3433;48.730;9.108;2022-08-30T12:21:33;5.67;;;5.27;;
6791;SDS011;3433;48.730;9.108;2022-08-30T12:24:24;6.70;;;5.80;;
6791;SDS011;3433;48.730;9.108;2022-08-30T12:27:21;7.23;;;6.50;;
6791;SDS011;3433;48.730;9.108;2022-08-30T12:30:10;7.20;;;6.47;;
6791;SDS011;3433;48.730;9.108;2022-08-30T12:32:58;6.40;;;5.73;;
6791;SDS011;3433;48.730;9.108;2022-08-30T12:35:45;5.80;;;5.30;;
6791;SDS011;3433;48.730;9.108;2022-08-30T12:38:33;8.17;;;5.97;;
6791;SDS011;3433;48.730;9.108;2022-08-30T12:41:22;7.90;;;6.13;;
6791;SDS011;3433;48.730;9.108;2022-08-30T12:44:11;6.10;;;5.50;;
6791;SDS011;3433;48.730;9.108;2022-08-30T12:47:02;7.30;;;6.13;;
6791;SDS011;3433;48.730;9.108;2022-08-30T12:49:52;6.40;;;5.80;;
6791;SDS011;3433;48.730;9.108;2022-08-30T12:52:42;6.73;;;6.13;;
6791;SDS011;3433;48.730;9.108;2022-08-30T12:55:33;6.17;;;5.67;;
6791;SDS011;3433;48.730;9.108;2022-08-30T12:58:37;6.20;;;5.63;;
6791;SDS011;3433;48.730;9.108;2022-08-30T13:01:28;6.43;;;5.77;;
6791;SDS011;3433;48.730;9.108;2022-08-30T13:04:18;6.33;;;5.73;;
6791;SDS011;3433;48.730;9.108;2022-08-30T13:07:07;7.80;;;6.20;;
6791;SDS011;3433;48.730;9.108;2022-08-30T13:09:58;8.40;;;5.60;;
6791;SDS011;3433;48.730;9.108;2022-08-30T13:12:59;7.07;;;5.73;;
6791;SDS011;3433;48.730;9.108;2022-08-30T13:15:49;8.27;;;5.43;;
6791;SDS011;3433;48.730;9.108;2022-08-30T13:18:36;6.77;;;6.17;;
6791;SDS011;3433;48.730;9.108;2022-08-30T13:21:26;6.30;;;5.80;;
6791;SDS011;3433;48.730;9.108;2022-08-30T13:24:14;6.50;;;5.63;;
6791;SDS011;3433;48.730;9.108;2022-08-30T13:27:03;6.07;;;5.57;;
6791;SDS011;3433;48.730;9.108;2022-08-30T13:29:54;6.30;;;5.70;;
6791;SDS011;3433;48.730;9.108;2022-08-30T13:32:44;6.03;;;5.50;;
6791;SDS011;3433;48.730;9.108;2022-08-30T13:35:31;5.97;;;5.43;;
6791;SDS011;3433;48.730;9.108;2022-08-30T13:38:19;5.80;;;5.03;;
6791;SDS011;3433;48.730;9.108;2022-08-30T13:41:06;5.67;;;5.17;;
6791;SDS011;3433;48.730;9.108;2022-08-30T13:43:54;5.80;;;5.30;;
6791;SDS011;3433;48.730;9.108;2022-08-30T13:46:42;6.63;;;6.03;;
6791;SDS011;3433;48.730;9.108;2022-08-30T13:49:34;5.97;;;5.53;;
6791;SDS011;3433;48.730;9.108;2022-08-30T13:52:24;6.47;;;5.97;;
6791;SDS011;3433;48.730;9.108;2022-08-30T13:55:11;5.60;;;5.10;;
6791;SDS011;3433;48.730;9.108;2022-08-30T13:57:59;8.43;;;6.03;;
6791;SDS011;3433;48.730;9.108;2022-08-30T14:00:46;6.50;;;5.70;;
6791;SDS011;3433;48.730;9.108;2022-08-30T14:03:34;7.60;;;5.50;;
6791;SDS011;3433;48.730;9.108;2022-08-30T14:06:23;7.40;;;5.93;;
6791;SDS011;3433;48.730;9.108;2022-08-30T14:09:10;6.50;;;5.90;;
6791;SDS011;3433;48.730;9.108;2022-08-30T14:11:59;6.33;;;5.73;;
6791;SDS011;3433;48.730;9.108;2022-08-30T14:14:46;6.27;;;5.67;;
6791;SDS011;3433;48.730;9.108;2022-08-30T14:17:34;6.03;;;5.47;;
6791;SDS011;3433;48.730;9.108;2022-08-30T14:20:21;6.40;;;5.80;;
6791;SDS011;3433;48.730;9.108;2022-08-30T14:23:10;6.00;;;5.50;;
6791;SDS011;3433;48.730;9.108;2022-08-30T14:25:58;6.03;;;5.40;;
6791;SDS011;3433;48.730;9.108;2022-08-30T14:28:47;6.93;;;6.33;;
6791;SDS011;3433;48.730;9.108;2022-08-30T14:31:34;6.07;;;5.57;;
6791;SDS011;3433;48.730;9.108;2022-08-30T14:34:22;6.30;;;5.80;;
6791;SDS011;3433;48.730;9.108;2022-08-30T14:37:10;6.60;;;5.80;;
6791;SDS011;3433;48.730;9.108;2022-08-30T14:39:59;6.30;;;5.80;;
6791;SDS011;3433;48.730;9.108;2022-08-30T14:42:46;6.03;;;5.53;;
6791;SDS011;3433;48.730;9.108;2022-08-30T14:45:36;5.87;;;5.30;;
6791;SDS011;3433;48.730;9.108;2022-08-30T14:48:23;6.30;;;5.27;;
6791;SDS011;3433;48.730;9.108;2022-08-30T14:51:11;5.93;;;5.50;;
6791;SDS011;3433;48.730;9.108;2022-08-30T14:53:59;5.47;;;4.97;;
6791;SDS011;3433;48.730;9.108;2022-08-30T14:56:48;6.23;;;5.63;;
6791;SDS011;3433;48.730;9.108;2022-08-30T14:59:36;6.10;;;5.50;;
6791;SDS011;3433;48.730;9.108;2022-08-30T15:02:23;6.53;;;5.90;;
6791;SDS011;3433;48.730;9.108;2022-08-30T15:05:11;10.80;;;6.03;;
6791;SDS011;3433;48.730;9.108;2022-08-30T15:07:58;6.13;;;5.63;;
6791;SDS011;3433;48.730;9.108;2022-08-30T15:10:46;6.83;;;5.30;;
6791;SDS011;3433;48.730;9.108;2022-08-30T15:13:35;6.43;;;5.83;;
6791;SDS011;3433;48.730;9.108;2022-08-30T15:16:23;6.50;;;5.80;;
6791;SDS011;3433;48.730;9.108;2022-08-30T15:19:12;6.30;;;5.80;;
6791;SDS011;3433;48.730;9.108;2022-08-30T15:22:00;6.20;;;5.63;;
6791;SDS011;3433;48.730;9.108;2022-08-30T15:24:49;6.37;;;5.87;;
6791;SDS011;3433;48.730;9.108;2022-08-30T15:27:36;6.00;;;5.50;;
6791;SDS011;3433;48.730;9.108;2022-08-30T15:30:25;7.77;;;6.03;;
6791;SDS011;3433;48.730;9.108;2022-08-30T15:33:12;6.40;;;5.80;;
6791;SDS011;3433;48.730;9.108;2022-08-30T15:36:00;7.13;;;6.40;;
6791;SDS011;3433;48.730;9.108;2022-08-30T15:38:50;6.23;;;5.70;;
6791;SDS011;3433;48.730;9.108;2022-08-30T15:41:40;6.93;;;6.23;;
6791;SDS011;3433;48.730;9.108;2022-08-30T15:44:28;6.30;;;5.70;;
6791;SDS011;3433;48.730;9.108;2022-08-30T15:47:19;7.30;;;5.87;;
6791;SDS011;3433;48.730;9.108;2022-08-30T15:50:07;6.43;;;5.83;;
6791;SDS011;3433;48.730;9.108;2022-08-30T15:52:55;6.07;;;5.30;;
6791;SDS011;3433;48.730;9.108;2022-08-30T15:55:44;6.70;;;6.10;;
6791;SDS011;3433;48.730;9.108;2022-08-30T15:58:32;6.93;;;6.17;;
6791;SDS011;3433;48.730;9.108;2022-08-30T16:01:20;6.13;;;5.63;;
6791;SDS011;3433;48.730;9.108;2022-08-30T16:04:09;6.70;;;6.10;;
6791;SDS011;3433;48.730;9.108;2022-08-30T16:06:57;6.70;;;5.97;;
6791;SDS011;3433;48.730;9.108;2022-08-30T16:09:44;6.43;;;5.83;;
6791;SDS011;3433;48.730;9.108;2022-08-30T16:12:32;7.23;;;5.90;;
6791;SDS011;3433;48.730;9.108;2022-08-30T16:15:19;5.90;;;5.40;;
6791;SDS011;3433;48.730;9.108;2022-08-30T16:18:06;6.03;;;5.53;;
6791;SDS011;3433;48.730;9.108;2022-08-30T16:21:02;6.90;;;6.30;;
6791;SDS011;3433;48.730;9.108;2022-08-30T16:23:52;6.33;;;5.73;;
6791;SDS011;3433;48.730;9.108;2022-08-30T16:26:41;8.47;;;6.37;;
6791;SDS011;3433;48.730;9.108;2022-08-30T16:29:28;6.53;;;5.80;;
6791;SDS011;3433;48.730;9.108;2022-08-30T16:32:16;7.20;;;6.40;;
6791;SDS011;3433;48.730;9.108;2022-08-30T16:35:05;9.70;;;6.17;;
6791;SDS011;3433;48.730;9.108;2022-08-30T16:37:54;6.50;;;5.93;;
6791;SDS011;3433;48.730;9.108;2022-08-30T16:40:42;6.57;;;5.87;;
6791;SDS011;3433;48.730;9.108;2022-08-30T16:43:29;6.43;;;5.90;;
6791;SDS011;3433;48.730;9.108;2022-08-30T16:46:17;6.80;;;5.80;;
6791;SDS011;3433;48.730;9.108;2022-08-30T16:49:05;6.63;;;6.03;;
6791;SDS011;3433;48.730;9.108;2022-08-30T16:51:53;7.40;;;6.50;;
6791;SDS011;3433;48.730;9.108;2022-08-30T16:54:41;6.07;;;5.50;;
6791;SDS011;3433;48.730;9.108;2022-08-30T16:57:29;7.10;;;6.50;;
6791;SDS011;3433;48.730;9.108;2022-08-30T17:00:17;6.53;;;5.93;;
6791;SDS011;3433;48.730;9.108;2022-08-30T17:03:05;7.73;;;6.93;;
6791;SDS011;3433;48.730;9.108;2022-08-30T17:05:53;9.43;;;6.00;;
6791;SDS011;3433;48.730;9.108;2022-08-30T17:08:41;8.00;;;6.80;;
6791;SDS011;3433;48.730;9.108;2022-08-30T17:11:30;7.90;;;6.40;;
6791;SDS011;3433;48.730;9.108;2022-08-30T17:14:18;9.10;;;6.10;;
6791;SDS011;3433;48.730;9.108;2022-08-30T17:17:06;6.87;;;6.27;;
6791;SDS011;3433;48.730;9.108;2022-08-30T17:19:54;7.90;;;7.10;;
6791;SDS011;3433;48.730;9.108;2022-08-30T17:22:42;7.43;;;6.30;;
6791;SDS011;3433;48.730;9.108;2022-08-30T17:25:30;7.40;;;6.50;;
6791;SDS011;3433;48.730;9.108;2022-08-30T17:28:19;7.33;;;6.73;;
6791;SDS011;3433;48.730;9.108;2022-08-30T17:31:07;6.97;;;6.27;;
6791;SDS011;3433;48.730;9.108;2022-08-30T17:33:55;9.17;;;6.10;;
6791;SDS011;3433;48.730;9.108;2022-08-30T17:36:43;7.30;;;6.60;;
6791;SDS011;3433;48.730;9.108;2022-08-30T17:39:30;9.20;;;7.30;;
6791;SDS011;3433;48.730;9.108;2022-08-30T17:42:18;7.80;;;7.00;;
6791;SDS011;3433;48.730;9.108;2022-08-30T17:45:08;8.47;;;6.30;;
6791;SDS011;3433;48.730;9.108;2022-08-30T17:47:58;7.43;;;6.60;;
6791;SDS011;3433;48.730;9.108;2022-08-30T17:50:53;6.93;;;6.23;;
6791;SDS011;3433;48.730;9.108;2022-08-30T17:53:41;7.67;;;6.60;;
6791;SDS011;3433;48.730;9.108;2022-08-30T17:56:28;7.37;;;6.67;;